createdAt,value
2023-04-11T00:02:16.355Z,99927
2023-04-11T00:08:06.886Z,99909
2023-04-11T00:13:58.739Z,99940
2023-04-11T00:19:53.547Z,99922
2023-04-11T00:25:43.974Z,99932
2023-04-11T00:31:35.647Z,99915
2023-04-11T00:37:29.571Z,99902
2023-04-11T00:43:21.382Z,99913
2023-04-11T00:49:13.500Z,99896
2023-04-11T00:55:04.963Z,99889
2023-04-11T01:00:56.563Z,99878
2023-04-11T01:06:48.220Z,99863
2023-04-11T01:12:39.943Z,99868
2023-04-11T01:18:32.529Z,99865
2023-04-11T01:24:25.082Z,99859
2023-04-11T01:30:16.453Z,99883
2023-04-11T01:36:09.818Z,99893
2023-04-11T01:42:02.355Z,99893
2023-04-11T01:47:54.834Z,99872
2023-04-11T01:53:47.720Z,99874
2023-04-11T01:59:38.669Z,99886
2023-04-11T02:05:30.390Z,99877
2023-04-11T02:11:22.954Z,99889
2023-04-11T02:17:15.680Z,99895
2023-04-11T02:23:08.392Z,99907
2023-04-11T02:29:01.056Z,99900
2023-04-11T02:34:54.476Z,99917
2023-04-11T02:40:44.335Z,99925
2023-04-11T02:46:35.715Z,99927
2023-04-11T02:52:28.052Z,99931
2023-04-11T02:58:22.576Z,99948
2023-04-11T03:04:14.778Z,99939
2023-04-11T03:10:07.088Z,99940
2023-04-11T03:15:58.596Z,99941
2023-04-11T03:21:51.014Z,99959
2023-04-11T03:27:43.137Z,99968
2023-04-11T03:33:34.903Z,99968
2023-04-11T03:39:26.144Z,99962
2023-04-11T03:45:18.201Z,99960
2023-04-11T03:51:10.683Z,99974
2023-04-11T03:57:02.467Z,99977
2023-04-11T04:02:56.605Z,99980
2023-04-11T04:08:49.016Z,99983
2023-04-11T04:14:41.056Z,99997
2023-04-11T04:20:35.166Z,99979
2023-04-11T04:26:28.320Z,99981
2023-04-11T15:59:25.107Z,100167
2023-04-11T16:05:50.146Z,100153
2023-04-11T16:48:04.019Z,100113
2023-04-11T18:28:20.199Z,100081
2023-04-11T18:34:15.169Z,100075
2023-04-11T18:40:15.007Z,100079
2023-04-11T18:46:09.306Z,100076
2023-04-11T18:52:09.145Z,100073
2023-04-11T18:58:19.413Z,100065
2023-04-11T19:04:20.683Z,100062
2023-04-11T19:10:14.959Z,100049
2023-04-11T19:34:14.031Z,100033
2023-04-11T19:40:23.635Z,100023
2023-04-11T20:04:32.868Z,100005
2023-04-11T20:46:02.358Z,99947
2023-04-11T21:09:56.470Z,99907
2023-04-11T21:33:37.152Z,99874
2023-04-11T21:39:30.333Z,99870
2023-04-11T21:45:25.163Z,99870
2023-04-11T21:51:22.803Z,99860
2023-04-11T21:57:19.800Z,99856
2023-04-11T22:03:22.080Z,99846
2023-04-11T22:27:19.440Z,99799
2023-04-11T22:33:11.474Z,99797
2023-04-11T22:39:03.771Z,99782
2023-04-11T22:44:57.647Z,99778
2023-04-11T22:50:49.428Z,99772
2023-04-11T22:56:41.983Z,99766
2023-04-11T23:02:34.628Z,99749
2023-04-11T23:08:27.076Z,99748
2023-04-11T23:14:19.910Z,99743
2023-04-11T23:20:11.619Z,99734
2023-04-11T23:26:06.140Z,99720
2023-04-11T23:31:56.528Z,99719
2023-04-11T23:37:50.383Z,99707
2023-04-11T23:43:40.915Z,99697
2023-04-11T23:49:35.897Z,99689
2023-04-11T23:55:27.128Z,99669
